Time;durP1;ratioP1;P1;durP2;ratioP2;P2;SDS_P1;SDS_P2;PMS_P1;PMS_P2;Temp;Humidity;BMP_temperature;BMP_pressure;BME280_temperature;BME280_humidity;BME280_pressure;Samples;Min_cycle;Max_cycle;Signal;HPM_P1;HPM_P2
2022/07/09 00:01:24;;;;;;;;;;;11.70;99.90;;;;;;5074203;28;19911;-73
2022/07/09 00:03:51;;;;;;;;;;;11.80;99.90;;;;;;5073326;28;20331;-72
2022/07/09 00:06:17;;;;;;;;;;;11.90;99.90;;;;;;5074151;28;20004;-73
2022/07/09 00:08:43;;;;;;;;;;;12.00;99.90;;;;;;5074108;28;19936;-73
2022/07/09 00:11:08;;;;;;;;;;;12.00;99.90;;;;;;5074094;28;19927;-73
2022/07/09 00:13:34;;;;;;;;;;;12.00;99.90;;;;;;5073882;28;20279;-72
2022/07/09 00:15:59;;;;;;;;;;;12.00;99.90;;;;;;5072730;28;19908;-73
2022/07/09 00:18:25;;;;;;;;;;;12.00;99.90;;;;;;5073855;28;19915;-73
2022/07/09 00:20:50;;;;;;;;;;;11.90;99.90;;;;;;5073909;28;19915;-73
2022/07/09 00:23:16;;;;;;;;;;;11.90;99.90;;;;;;5072650;28;19905;-73
2022/07/09 00:25:41;;;;;;;;;;;11.70;99.90;;;;;;5073770;28;19904;-73
2022/07/09 00:28:07;;;;;;;;;;;11.60;99.90;;;;;;5073846;28;19911;-73
2022/07/09 00:30:32;;;;;;;;;;;11.60;99.90;;;;;;5073813;28;20388;-73
2022/07/09 00:32:58;;;;;;;;;;;11.50;99.90;;;;;;5073784;28;19996;-73
2022/07/09 00:35:23;;;;;;;;;;;11.50;99.90;;;;;;5073611;28;20265;-73
2022/07/09 00:37:49;;;;;;;;;;;11.50;99.90;;;;;;5073666;28;19931;-73
2022/07/09 00:40:14;;;;;;;;;;;11.50;99.90;;;;;;5073700;28;19904;-73
2022/07/09 00:42:40;;;;;;;;;;;11.60;99.90;;;;;;5073732;28;19909;-73
2022/07/09 00:45:06;;;;;;;;;;;11.70;99.90;;;;;;5072348;28;19904;-72
2022/07/09 00:47:32;;;;;;;;;;;11.70;99.90;;;;;;5073736;28;19904;-73
2022/07/09 00:49:57;;;;;;;;;;;11.70;99.90;;;;;;5073674;28;19905;-74
2022/07/09 00:52:23;;;;;;;;;;;11.70;99.90;;;;;;5073911;28;20368;-73
2022/07/09 00:54:48;;;;;;;;;;;11.70;99.90;;;;;;5073597;28;19999;-73
2022/07/09 00:57:15;;;;;;;;;;;11.60;99.90;;;;;;5074220;28;19932;-73
2022/07/09 00:59:41;;;;;;;;;;;11.60;99.90;;;;;;5073552;28;19909;-73
2022/07/09 01:02:08;;;;;;;;;;;11.50;99.90;;;;;;5074048;28;19911;-73
2022/07/09 01:04:33;;;;;;;;;;;11.40;99.90;;;;;;5073417;28;19913;-72
2022/07/09 01:06:59;;;;;;;;;;;11.30;99.90;;;;;;5073788;28;19909;-73
2022/07/09 01:09:25;;;;;;;;;;;11.30;99.90;;;;;;5073476;28;19919;-74
2022/07/09 01:11:51;;;;;;;;;;;11.20;99.90;;;;;;5073416;28;19932;-74
2022/07/09 01:14:17;;;;;;;;;;;11.10;99.90;;;;;;5074366;28;20352;-72
2022/07/09 01:16:42;;;;;;;;;;;11.10;99.90;;;;;;5077215;28;19943;-74
2022/07/09 01:19:08;;;;;;;;;;;11.10;99.90;;;;;;5077769;28;19904;-74
2022/07/09 01:21:34;;;;;;;;;;;11.10;99.90;;;;;;5077181;28;19911;-74
2022/07/09 01:23:59;;;;;;;;;;;11.00;99.90;;;;;;5077055;28;19908;-73
2022/07/09 01:26:25;;;;;;;;;;;10.90;99.90;;;;;;5077107;28;19904;-74
2022/07/09 01:28:51;;;;;;;;;;;10.80;99.90;;;;;;5077340;28;19908;-74
2022/07/09 01:31:16;;;;;;;;;;;10.80;99.90;;;;;;5077004;28;19904;-74
2022/07/09 01:33:42;;;;;;;;;;;10.80;99.90;;;;;;5076762;28;19943;-74
2022/07/09 01:36:08;;;;;;;;;;;10.90;99.90;;;;;;5075668;28;20356;-74
2022/07/09 01:38:33;;;;;;;;;;;10.90;99.90;;;;;;5076757;28;20387;-73
2022/07/09 01:40:59;;;;;;;;;;;10.90;99.90;;;;;;5077110;28;20323;-74
2022/07/09 01:43:25;;;;;;;;;;;10.90;99.90;;;;;;5077253;28;19905;-72
2022/07/09 01:45:50;;;;;;;;;;;10.90;99.90;;;;;;5076693;28;20384;-74
2022/07/09 01:48:16;;;;;;;;;;;10.90;99.90;;;;;;5076604;28;19993;-73
2022/07/09 01:50:41;;;;;;;;;;;10.80;99.90;;;;;;5076931;28;19904;-74
2022/07/09 01:53:07;;;;;;;;;;;10.80;99.90;;;;;;5076881;28;20352;-73
2022/07/09 01:55:33;;;;;;;;;;;10.80;99.90;;;;;;5076437;28;20003;-73
2022/07/09 01:57:58;;;;;;;;;;;10.80;99.90;;;;;;5076421;28;19944;-73
2022/07/09 02:00:24;;;;;;;;;;;10.80;99.90;;;;;;5076477;28;19908;-74
2022/07/09 02:02:49;;;;;;;;;;;10.80;99.90;;;;;;5076459;28;20362;-74
2022/07/09 02:05:15;;;;;;;;;;;10.80;99.90;;;;;;5076450;28;19904;-74
2022/07/09 02:07:41;;;;;;;;;;;10.80;99.90;;;;;;5076678;28;19908;-74
2022/07/09 02:10:07;;;;;;;;;;;10.80;99.90;;;;;;5076350;28;19904;-74
2022/07/09 02:12:32;;;;;;;;;;;10.80;99.90;;;;;;5076612;28;19969;-74
2022/07/09 02:14:58;;;;;;;;;;;10.80;99.90;;;;;;5076397;28;19908;-73
2022/07/09 02:17:24;;;;;;;;;;;10.80;99.90;;;;;;5076072;28;19908;-74
2022/07/09 02:19:49;;;;;;;;;;;10.80;99.90;;;;;;5076481;28;20318;-74
2022/07/09 02:22:15;;;;;;;;;;;10.80;99.90;;;;;;5076612;28;19912;-74
2022/07/09 02:24:41;;;;;;;;;;;10.80;99.90;;;;;;5074659;28;19915;-73
2022/07/09 02:27:06;;;;;;;;;;;10.80;99.90;;;;;;5075108;28;19904;-74
2022/07/09 02:29:32;;;;;;;;;;;10.80;99.90;;;;;;5075908;28;19904;-74
2022/07/09 02:31:57;;;;;;;;;;;10.90;99.90;;;;;;5076153;28;19951;-74
2022/07/09 02:34:24;;;;;;;;;;;10.90;99.90;;;;;;5075569;28;19959;-74
2022/07/09 02:36:49;;;;;;;;;;;10.90;99.90;;;;;;5076304;28;20345;-74
2022/07/09 02:39:17;;;;;;;;;;;10.80;99.90;;;;;;5075972;28;19928;-74
2022/07/09 02:41:42;;;;;;;;;;;10.80;99.90;;;;;;5075697;28;19905;-74
2022/07/09 02:44:08;;;;;;;;;;;10.70;99.90;;;;;;5075627;28;19927;-73
2022/07/09 02:46:33;;;;;;;;;;;10.50;99.90;;;;;;5075587;28;19938;-74
2022/07/09 02:48:59;;;;;;;;;;;10.40;99.90;;;;;;5075606;28;19908;-74
2022/07/09 02:51:24;;;;;;;;;;;10.40;99.90;;;;;;5075553;28;20388;-74
2022/07/09 02:53:50;;;;;;;;;;;10.30;99.90;;;;;;5075391;28;19943;-74
2022/07/09 02:56:16;;;;;;;;;;;10.30;99.90;;;;;;5075626;28;19904;-74
2022/07/09 02:58:41;;;;;;;;;;;10.30;99.90;;;;;;5075334;28;19915;-74
2022/07/09 03:01:07;;;;;;;;;;;10.30;99.90;;;;;;5075305;28;19911;-74
2022/07/09 03:03:35;;;;;;;;;;;10.10;99.90;;;;;;5075154;28;19927;-73
2022/07/09 03:06:01;;;;;;;;;;;10.10;99.90;;;;;;5075133;28;19912;-74
2022/07/09 03:08:27;;;;;;;6.15;2.05;;;10.00;99.90;;;;;;5074728;28;19905;-74
2022/07/09 03:10:53;;;;;;;4.15;2.10;;;10.00;99.90;;;;;;5074697;28;20017;-74
2022/07/09 03:13:18;;;;;;;5.68;2.00;;;9.90;99.90;;;;;;5074535;28;20027;-74
2022/07/09 03:15:44;;;;;;;3.05;1.98;;;9.90;99.90;;;;;;5074828;28;20016;-74
2022/07/09 03:18:10;;;;;;;5.82;2.10;;;10.00;99.90;;;;;;5074691;28;20028;-74
2022/07/09 03:20:36;;;;;;;3.47;2.03;;;10.00;99.90;;;;;;5074409;28;20035;-74
2022/07/09 03:23:03;;;;;;;3.83;2.03;;;10.00;99.90;;;;;;5074670;28;20431;-74
2022/07/09 03:25:29;;;;;;;3.60;2.28;;;10.00;99.90;;;;;;5074304;28;20089;-73
2022/07/09 03:27:54;;;;;;;5.82;1.90;;;10.00;99.90;;;;;;5073069;28;20028;-74
2022/07/09 03:30:20;;;;;;;2.72;1.70;;;10.10;99.90;;;;;;5074574;28;20037;-74
2022/07/09 03:32:46;;;;;;;4.85;1.75;;;10.10;99.90;;;;;;5074235;28;20122;-74
2022/07/09 03:35:11;;;;;;;3.80;1.80;;;10.10;99.90;;;;;;5074003;28;20037;-74
2022/07/09 03:37:37;;;;;;;4.13;2.00;;;10.20;99.90;;;;;;5072661;28;20031;-74
2022/07/09 03:40:04;;;;;;;4.22;1.70;;;10.20;99.90;;;;;;5074365;28;20396;-74
2022/07/09 03:42:30;;;;;;;4.53;1.70;;;10.20;99.90;;;;;;5074585;28;20106;-74
2022/07/09 03:44:55;;;;;;;3.13;1.50;;;10.20;99.90;;;;;;5073947;28;20475;-73
2022/07/09 03:47:21;;;;;;;2.88;1.52;;;10.20;99.90;;;;;;5073972;28;20115;-74
2022/07/09 03:49:46;;;;;;;3.38;1.60;;;10.20;99.90;;;;;;5073905;28;20095;-73
2022/07/09 03:52:12;;;;;;;2.78;1.65;;;10.20;99.90;;;;;;5074740;28;20028;-74
2022/07/09 03:54:38;;;;;;;3.63;1.85;;;10.20;99.90;;;;;;5073893;28;20017;-72
2022/07/09 03:57:04;;;;;;;4.85;2.10;;;10.20;99.90;;;;;;5073705;28;20029;-74
2022/07/09 03:59:30;;;;;;;3.60;1.83;;;10.20;99.90;;;;;;5074032;28;20085;-74
2022/07/09 04:01:56;;;;;;;2.72;1.63;;;10.20;99.90;;;;;;5072447;28;20086;-74
2022/07/09 04:04:21;;;;;;;6.15;2.10;;;10.20;99.90;;;;;;5073643;28;20119;-73
2022/07/09 04:06:47;;;;;;;4.72;2.22;;;10.20;99.90;;;;;;5073663;28;20492;-74
2022/07/09 04:09:13;;;;;;;3.85;2.00;;;10.20;99.90;;;;;;5072249;28;20024;-73
2022/07/09 04:11:38;;;;;;;4.15;1.70;;;10.30;99.90;;;;;;5073099;28;20025;-73
2022/07/09 04:14:04;;;;;;;4.55;2.17;;;10.30;99.90;;;;;;5072146;28;20476;-73
2022/07/09 04:16:30;;;;;;;4.93;1.83;;;10.30;99.90;;;;;;5071111;28;20470;-73
2022/07/09 04:18:56;;;;;;;5.60;1.80;;;10.40;99.90;;;;;;5071910;28;20032;-73
2022/07/09 04:21:22;;;;;;;5.55;2.00;;;10.40;99.90;;;;;;5072962;28;20029;-73
2022/07/09 04:23:51;;;;;;;2.90;1.85;;;10.50;99.90;;;;;;5073306;28;20388;-73
2022/07/09 04:26:18;;;;;;;4.43;2.45;;;10.50;99.90;;;;;;5073223;28;20025;-75
2022/07/09 04:28:44;;;;;;;4.47;2.38;;;10.50;99.90;;;;;;5073244;28;20098;-73
2022/07/09 04:31:10;;;;;;;3.65;2.05;;;10.50;99.90;;;;;;5071997;28;20078;-73
2022/07/09 04:33:36;;;;;;;3.90;2.10;;;10.40;99.90;;;;;;5072977;28;20024;-75
2022/07/09 04:36:02;;;;;;;5.03;2.45;;;10.40;99.90;;;;;;5069037;28;20028;-73
2022/07/09 04:38:28;;;;;;;7.95;2.70;;;10.40;99.90;;;;;;5071803;28;20039;-73
2022/07/09 04:40:54;;;;;;;3.90;2.75;;;10.40;99.90;;;;;;5071838;28;20100;-74
2022/07/09 04:43:20;;;;;;;4.95;2.78;;;10.50;99.90;;;;;;5072990;28;20024;-73
2022/07/09 04:45:46;;;;;;;4.13;2.83;;;10.50;99.90;;;;;;5071732;28;20021;-73
2022/07/09 04:48:12;;;;;;;4.10;2.38;;;10.50;99.90;;;;;;5073093;28;20107;-73
2022/07/09 04:50:38;;;;;;;5.70;2.60;;;10.60;99.90;;;;;;5075126;28;20024;-73
2022/07/09 04:53:03;;;;;;;3.30;2.25;;;10.60;99.90;;;;;;5076144;28;20030;-73
2022/07/09 04:55:29;;;;;;;5.50;2.42;;;10.70;99.90;;;;;;5076925;28;20020;-73
2022/07/09 04:57:55;;;;;;;4.25;2.55;;;10.70;99.90;;;;;;5076291;28;20492;-73
2022/07/09 05:00:20;;;;;;;6.20;2.60;;;10.70;99.90;;;;;;5075158;28;20020;-73
2022/07/09 05:02:46;;;;;;;4.20;2.22;;;10.80;99.90;;;;;;5075667;28;20033;-73
2022/07/09 05:05:13;;;;;;;4.65;2.40;;;10.80;99.90;;;;;;5076933;28;20066;-73
2022/07/09 05:07:39;;;;;;;3.72;2.42;;;10.90;99.90;;;;;;5077074;28;20023;-74
2022/07/09 05:10:06;;;;;;;3.53;2.05;;;10.90;99.90;;;;;;5076981;28;20020;-75
2022/07/09 05:12:31;;;;;;;6.60;2.30;;;11.00;99.90;;;;;;5076916;28;20031;-74
2022/07/09 05:14:57;;;;;;;4.47;2.50;;;11.00;99.90;;;;;;5077086;28;20032;-74
2022/07/09 05:17:23;;;;;;;3.65;2.40;;;11.10;99.90;;;;;;5076770;28;20118;-75
2022/07/09 05:19:49;;;;;;;4.75;1.90;;;11.10;99.90;;;;;;5076109;28;20397;-75
2022/07/09 05:22:15;;;;;;;4.95;2.47;;;11.10;99.90;;;;;;5076728;28;20034;-75
2022/07/09 05:24:41;;;;;;;4.35;2.13;;;11.20;99.90;;;;;;5076824;28;20031;-74
2022/07/09 05:27:10;;;;;;;5.45;2.45;;;11.20;99.90;;;;;;5076636;28;20032;-75
2022/07/09 05:29:37;;;;;;;3.50;2.33;;;11.30;99.90;;;;;;5076680;28;20071;-75
2022/07/09 05:32:03;;;;;;;4.80;2.22;;;11.40;99.90;;;;;;5076604;28;20031;-74
2022/07/09 05:34:29;;;;;;;4.97;2.30;;;11.40;99.90;;;;;;5076390;28;20496;-74
2022/07/09 05:36:55;;;;;;;3.72;2.53;;;11.40;99.90;;;;;;5076378;28;20029;-75
2022/07/09 05:39:21;;;;;;;6.68;2.85;;;11.60;99.90;;;;;;5076979;28;20036;-71
2022/07/09 05:41:48;;;;;;;5.80;2.53;;;11.60;99.90;;;;;;5076866;28;20461;-71
2022/07/09 05:44:14;;;;;;;4.72;2.45;;;11.70;99.90;;;;;;5076717;28;20368;-71
2022/07/09 05:46:40;;;;;;;4.40;2.90;;;11.70;99.90;;;;;;5076269;28;20017;-71
2022/07/09 05:49:06;;;;;;;4.10;2.80;;;11.70;99.90;;;;;;5076022;28;20419;-71
2022/07/09 05:51:32;;;;;;;6.50;2.92;;;11.80;99.90;;;;;;5075992;28;20021;-71
2022/07/09 05:53:57;;;;;;;6.45;3.25;;;11.80;99.90;;;;;;5076086;28;20439;-71
2022/07/09 05:56:23;;;;;;;7.97;4.20;;;11.80;99.90;;;;;;5074789;28;20094;-71
2022/07/09 05:58:49;;;;;;;4.47;3.15;;;11.90;99.90;;;;;;5076090;28;20469;-71
2022/07/09 06:01:15;;;;;;;6.50;2.90;;;11.90;99.90;;;;;;5075952;28;20029;-71
2022/07/09 06:03:42;;;;;;;4.63;3.20;;;11.90;99.90;;;;;;5075927;28;20017;-71
2022/07/09 06:06:08;;;;;;;7.25;3.85;;;12.00;99.90;;;;;;5076005;28;20024;-71
2022/07/09 06:08:34;;;;;;;7.10;3.67;;;12.00;99.90;;;;;;5075397;28;20020;-71
2022/07/09 06:11:00;;;;;;;8.43;3.80;;;12.10;99.90;;;;;;5075157;28;20060;-71
2022/07/09 06:13:26;;;;;;;5.53;2.90;;;12.10;99.90;;;;;;5076095;28;20025;-71
2022/07/09 06:15:52;;;;;;;6.18;3.55;;;12.20;99.90;;;;;;5076012;28;20064;-71
2022/07/09 06:18:18;;;;;;;11.45;3.80;;;12.20;99.90;;;;;;5075873;28;20103;-71
2022/07/09 06:20:45;;;;;;;7.72;4.13;;;12.20;99.90;;;;;;5075932;28;20506;-71
2022/07/09 06:23:12;;;;;;;6.13;3.00;;;12.30;99.90;;;;;;5075641;28;20380;-71
2022/07/09 06:25:38;;;;;;;6.07;3.53;;;12.30;99.90;;;;;;5075537;28;20016;-71
2022/07/09 06:28:04;;;;;;;6.78;3.80;;;12.40;99.90;;;;;;5074279;28;20025;-71
2022/07/09 06:30:30;;;;;;;5.25;3.22;;;12.40;99.90;;;;;;5075815;28;20146;-71
2022/07/09 06:32:56;;;;;;;9.75;4.05;;;12.50;99.90;;;;;;5076038;28;20423;-71
2022/07/09 06:35:22;;;;;;;5.93;3.72;;;12.60;99.90;;;;;;5075262;28;20119;-71
2022/07/09 06:37:47;;;;;;;5.05;3.53;;;12.70;99.90;;;;;;5075586;28;20039;-71
2022/07/09 06:40:13;;;;;;;6.45;3.92;;;12.80;99.90;;;;;;5075299;28;20021;-71
2022/07/09 06:42:39;;;;;;;5.00;3.50;;;12.80;99.90;;;;;;5075360;28;20141;-71
2022/07/09 06:45:06;;;;;;;7.80;3.45;;;13.00;99.90;;;;;;5075160;28;20025;-71
2022/07/09 06:47:32;;;;;;;6.43;3.60;;;13.10;99.90;;;;;;5075680;28;20027;-71
2022/07/09 06:49:57;;;;;;;5.13;3.08;;;13.10;99.90;;;;;;5075120;28;20025;-71
2022/07/09 06:52:23;;;;;;;7.13;3.53;;;13.20;99.90;;;;;;5075072;28;20025;-71
2022/07/09 06:54:49;;;;;;;5.65;3.25;;;13.40;99.90;;;;;;5075257;28;20078;-71
2022/07/09 06:57:16;;;;;;;5.20;3.20;;;13.40;99.90;;;;;;5074894;28;20032;-71
2022/07/09 06:59:42;;;;;;;6.05;3.80;;;13.50;99.90;;;;;;5075132;28;20048;-71
2022/07/09 07:02:08;;;;;;;5.53;3.10;;;13.60;99.90;;;;;;5075703;28;20397;-71
2022/07/09 07:04:34;;;;;;;4.78;2.80;;;13.70;99.90;;;;;;5074773;28;20020;-71
2022/07/09 07:06:59;;;;;;;4.15;2.97;;;13.80;99.90;;;;;;5074760;28;20103;-71
2022/07/09 07:09:25;;;;;;;9.50;3.00;;;13.90;99.90;;;;;;5074694;28;20486;-71
2022/07/09 07:11:51;;;;;;;7.57;3.50;;;14.10;99.90;;;;;;5074422;28;20625;-71
2022/07/09 07:14:17;;;;;;;6.97;3.30;;;14.20;99.90;;;;;;5074514;28;20166;-71
2022/07/09 07:16:44;;;;;;;5.28;3.28;;;14.20;99.90;;;;;;5073251;28;20037;-71
2022/07/09 07:19:10;;;;;;;4.57;3.10;;;14.30;99.90;;;;;;5074855;28;20031;-71
2022/07/09 07:21:36;;;;;;;6.40;3.33;;;14.40;99.90;;;;;;5074745;28;20025;-71
2022/07/09 07:24:03;;;;;;;8.90;3.25;;;14.50;99.90;;;;;;5074675;28;20021;-71
2022/07/09 07:26:29;;;;;;;4.18;2.70;;;14.50;99.90;;;;;;5074280;28;20031;-71
2022/07/09 07:28:54;;;;;;;5.00;2.75;;;14.60;99.90;;;;;;5074252;28;20017;-71
2022/07/09 07:31:21;;;;;;;4.00;2.80;;;14.60;99.90;;;;;;5074214;28;20104;-71
2022/07/09 07:33:47;;;;;;;7.60;2.85;;;14.80;99.90;;;;;;5074495;28;20086;-71
2022/07/09 07:36:12;;;;;;;4.15;2.25;;;14.90;99.90;;;;;;5074470;28;20021;-71
2022/07/09 07:38:38;;;;;;;5.30;2.10;;;15.00;99.90;;;;;;5074240;28;20029;-71
2022/07/09 07:41:04;;;;;;;5.03;2.47;;;15.00;99.90;;;;;;5074375;28;20024;-71
2022/07/09 07:43:29;;;;;;;5.03;1.92;;;15.20;99.90;;;;;;5074272;28;20469;-72
2022/07/09 07:45:55;;;;;;;5.53;2.20;;;15.40;99.90;;;;;;5074094;28;20024;-71
2022/07/09 07:48:21;;;;;;;6.55;2.40;;;15.60;99.90;;;;;;5072801;28;20141;-70
2022/07/09 07:50:47;;;;;;;7.50;2.30;;;15.80;99.90;;;;;;5074134;28;20082;-70
2022/07/09 07:53:12;;;;;;;5.07;2.53;;;16.00;99.90;;;;;;5074141;28;20077;-70
2022/07/09 07:55:39;;;;;;;6.28;2.65;;;16.20;99.90;;;;;;5074098;28;20028;-70
2022/07/09 07:58:05;;;;;;;3.65;2.60;;;16.30;99.90;;;;;;5073762;28;20027;-70
2022/07/09 08:00:31;;;;;;;6.55;2.30;;;16.50;99.90;;;;;;5073820;28;20020;-70
2022/07/09 08:02:56;;;;;;;6.93;2.58;;;16.70;99.90;;;;;;5074084;28;20016;-70
2022/07/09 08:05:22;;;;;;;6.63;3.08;;;16.90;99.90;;;;;;5073711;28;20035;-70
2022/07/09 08:07:48;;;;;;;4.63;2.60;;;17.10;99.90;;;;;;5074074;28;20025;-70
2022/07/09 08:10:14;;;;;;;7.85;2.80;;;17.10;99.90;;;;;;5073649;28;20029;-70
2022/07/09 08:12:39;;;;;;;5.43;2.45;;;17.20;99.90;;;;;;5073657;28;20024;-70
2022/07/09 08:15:05;;;;;;;7.13;2.85;;;17.20;99.90;;;;;;5073516;28;20548;-70
2022/07/09 08:17:31;;;;;;;6.13;3.15;;;17.10;99.90;;;;;;5073483;28;20047;-70
2022/07/09 08:19:57;;;;;;;5.10;2.60;;;17.20;99.90;;;;;;5073510;28;20024;-71
2022/07/09 08:22:22;;;;;;;7.35;3.30;;;17.30;99.90;;;;;;5073530;28;20423;-71
2022/07/09 08:24:48;;;;;;;6.55;2.60;;;17.40;99.90;;;;;;5072552;28;20024;-71
2022/07/09 08:27:14;;;;;;;10.88;3.38;;;17.50;99.90;;;;;;5073393;28;20028;-70
2022/07/09 08:29:39;;;;;;;4.55;2.20;;;17.50;99.90;;;;;;5073365;28;20386;-70
2022/07/09 08:32:06;;;;;;;5.45;2.67;;;17.70;99.90;;;;;;5073686;28;20070;-70
2022/07/09 08:34:31;;;;;;;6.63;2.38;;;17.80;99.90;;;;;;5073437;28;20523;-71
2022/07/09 08:36:57;;;;;;;5.25;2.50;;;17.80;99.90;;;;;;5073284;28;20043;-71
2022/07/09 08:39:22;;;;;;;5.97;2.40;;;17.90;99.90;;;;;;5073312;28;20020;-70
2022/07/09 08:41:48;;;;;;;4.85;2.30;;;18.00;99.90;;;;;;5073315;28;20025;-70
2022/07/09 08:44:15;;;;;;;6.93;3.30;;;18.10;99.90;;;;;;5073174;28;20031;-71
2022/07/09 08:46:41;;;;;;;4.65;2.50;;;18.30;99.90;;;;;;5071997;28;20115;-70
2022/07/09 08:49:07;;;;;;;10.88;3.95;;;18.50;99.90;;;;;;5073255;28;20048;-70
2022/07/09 08:51:35;;;;;;;3.92;1.58;;;18.70;99.90;;;;;;5073535;28;20029;-70
2022/07/09 08:54:02;;;;;;;15.13;4.80;;;18.90;98.20;;;;;;5073367;28;20473;-70
2022/07/09 08:56:27;;;;;;;8.48;3.58;;;19.00;97.60;;;;;;5073169;28;20028;-70
2022/07/09 08:58:53;;;;;;;5.00;2.65;;;19.10;98.70;;;;;;5073151;28;20052;-70
2022/07/09 09:01:19;;;;;;;4.18;1.70;;;19.10;97.20;;;;;;5073131;28;20021;-70
2022/07/09 09:03:46;;;;;;;3.72;1.50;;;19.10;96.60;;;;;;5073037;28;20023;-70
2022/07/09 09:06:13;;;;;;;4.82;1.60;;;19.20;97.90;;;;;;5073401;28;20032;-70
2022/07/09 09:08:38;;;;;;;3.60;1.30;;;19.20;94.10;;;;;;5073097;28;20370;-70
2022/07/09 09:11:05;;;;;;;1.73;1.10;;;19.30;94.30;;;;;;5072967;28;20032;-70
2022/07/09 09:13:36;;;;;;;3.55;1.27;;;19.30;95.00;;;;;;5073264;28;20473;-71
2022/07/09 09:16:04;;;;;;;5.40;1.20;;;19.40;96.00;;;;;;5073014;28;20123;-70
2022/07/09 09:18:29;;;;;;;3.42;1.45;;;19.40;95.00;;;;;;5071638;28;20052;-70
2022/07/09 09:21:02;;;;;;;4.03;1.40;;;19.40;94.30;;;;;;5071458;28;20385;-71
2022/07/09 09:23:28;;;;;;;2.97;1.30;;;19.40;91.60;;;;;;5072819;28;20025;-70
2022/07/09 09:25:54;;;;;;;4.03;1.58;;;19.40;93.10;;;;;;5072765;28;20027;-70
2022/07/09 09:28:19;;;;;;;4.05;1.30;;;19.40;93.50;;;;;;5072749;28;20074;-70
2022/07/09 09:30:46;;;;;;;1.45;0.85;;;19.50;93.30;;;;;;5072672;28;20469;-70
2022/07/09 09:33:15;;;;;;;2.88;1.10;;;19.70;93.30;;;;;;5072746;28;20029;-71
2022/07/09 09:35:44;;;;;;;3.95;1.27;;;19.90;91.10;;;;;;5074223;28;20127;-70
2022/07/09 09:38:10;;;;;;;7.55;1.38;;;19.90;90.40;;;;;;5075144;28;20078;-70
2022/07/09 09:40:37;;;;;;;3.53;1.02;;;20.10;90.00;;;;;;5076443;28;20025;-70
2022/07/09 09:43:03;;;;;;;3.05;1.10;;;20.20;91.30;;;;;;5076404;28;20522;-70
2022/07/09 09:45:29;;;;;;;4.53;1.02;;;20.30;88.40;;;;;;5076272;28;20028;-70
2022/07/09 09:47:56;;;;;;;2.20;0.85;;;20.30;88.50;;;;;;5076845;28;20029;-70
2022/07/09 09:50:24;;;;;;;3.92;1.10;;;20.40;89.70;;;;;;5076509;28;20365;-70
2022/07/09 09:52:52;;;;;;;2.65;0.70;;;20.40;88.80;;;;;;5076804;28;20028;-70
2022/07/09 09:55:18;;;;;;;2.22;0.82;;;20.40;87.90;;;;;;5076652;28;20024;-70
2022/07/09 09:57:44;;;;;;;3.70;1.08;;;20.40;87.00;;;;;;5076075;28;20493;-70
2022/07/09 10:00:15;;;;;;;3.35;1.08;;;20.40;85.90;;;;;;5076130;28;20207;-70
2022/07/09 10:02:46;;;;;;;2.17;0.90;;;20.40;86.00;;;;;;5076128;28;20020;-70
2022/07/09 10:05:12;;;;;;;;;;;20.40;84.30;;;;;;5076463;28;20032;-70
2022/07/09 10:07:43;;;;;;;2.42;1.00;;;20.30;86.20;;;;;;5075994;28;19915;-70
2022/07/09 10:10:16;;;;;;;2.47;0.88;;;20.30;86.20;;;;;;5076222;28;20025;-70
2022/07/09 10:12:41;;;;;;;2.55;1.02;;;20.40;85.60;;;;;;5076166;28;20063;-70
2022/07/09 10:15:22;;;;;;;2.20;0.80;;;20.50;85.50;;;;;;5075703;28;20488;-70
2022/07/09 10:17:47;;;;;;;4.50;1.10;;;20.60;88.50;;;;;;5075774;28;20492;-70
2022/07/09 10:20:13;;;;;;;2.63;1.00;;;20.70;84.40;;;;;;5075734;28;20051;-70
2022/07/09 10:22:41;;;;;;;3.25;1.10;;;20.70;83.50;;;;;;5075999;28;20027;-70
2022/07/09 10:25:08;;;;;;;5.88;1.10;;;20.70;82.60;;;;;;5075640;28;20389;-70
2022/07/09 10:27:47;;;;;;;3.40;0.98;;;20.80;84.70;;;;;;5075840;28;20099;-70
2022/07/09 10:30:26;;;;;;;3.45;0.93;;;20.70;83.40;;;;;;5075768;28;20037;-70
2022/07/09 10:33:05;;;;;;;2.92;1.20;;;20.80;82.30;;;;;;5075426;28;20099;-70
2022/07/09 10:35:38;;;;;;;2.00;0.90;;;20.80;82.10;;;;;;5075354;28;20044;-70
2022/07/09 10:38:03;;;;;;;2.42;0.82;;;20.80;84.00;;;;;;5075944;28;20464;-70
2022/07/09 10:40:41;;;;;;;2.92;0.82;;;20.80;83.50;;;;;;5075341;28;20058;-72
2022/07/09 10:43:07;;;;;;;3.28;1.10;;;20.80;80.20;;;;;;5075613;28;20017;-71
2022/07/09 10:45:41;;;;;;;4.07;0.95;;;20.80;79.50;;;;;;5075207;28;20020;-71
2022/07/09 10:48:11;;;;;;;4.72;1.13;;;20.70;80.60;;;;;;5074281;28;20498;-71
2022/07/09 10:50:39;;;;;;;2.38;0.90;;;20.80;82.80;;;;;;5075185;28;20481;-71
2022/07/09 10:53:05;;;;;;;3.22;0.88;;;20.80;81.60;;;;;;5075156;28;20070;-71
2022/07/09 10:55:31;;;;;;;3.47;1.10;;;20.70;81.90;;;;;;5075021;28;20032;-71
2022/07/09 10:57:57;;;;;;;4.32;1.20;;;20.70;82.80;;;;;;5075231;28;20068;-71
2022/07/09 11:00:25;;;;;;;5.20;1.10;;;20.60;81.00;;;;;;5074957;28;20036;-69
2022/07/09 11:02:59;;;;;;;2.38;1.13;;;20.50;83.20;;;;;;5074914;28;20031;-70
2022/07/09 11:05:26;;;;;;;2.88;0.90;;;20.50;81.80;;;;;;5074764;28;20059;-70
2022/07/09 11:08:00;;;;;;;1.63;0.82;;;20.50;80.60;;;;;;5074791;28;20039;-70
2022/07/09 11:10:27;;;;;;;6.15;1.45;;;20.40;82.80;;;;;;5074710;28;20081;-70
2022/07/09 11:12:54;;;;;;;2.25;1.00;;;20.40;82.20;;;;;;5074672;28;20052;-70
2022/07/09 11:15:21;;;;;;;3.15;0.90;;;20.40;84.60;;;;;;5074913;28;20543;-70
2022/07/09 11:18:03;;;;;;;1.52;0.77;;;20.40;83.00;;;;;;5074547;28;20033;-70
2022/07/09 11:20:31;;;;;;;2.50;0.90;;;20.70;82.00;;;;;;5075120;28;20394;-70
2022/07/09 11:22:57;;;;;;;1.90;0.90;;;21.00;83.00;;;;;;5074817;28;20446;-70
2022/07/09 11:25:26;;;;;;;4.18;1.02;;;21.30;80.30;;;;;;5074437;28;20029;-70
2022/07/09 11:27:57;;;;;;;2.53;0.98;;;21.50;81.10;;;;;;5074426;28;20094;-70
2022/07/09 11:30:23;;;;;;;3.57;1.40;;;21.70;82.30;;;;;;5074399;28;20032;-70
2022/07/09 11:32:49;;;;;;;4.07;1.13;;;22.00;82.00;;;;;;5074353;28;20274;-70
2022/07/09 11:35:28;;;;;;;;;;;22.20;81.40;;;;;;5074485;28;20048;-70
2022/07/09 11:37:54;;;;;;;;;;;22.50;81.00;;;;;;5074596;28;20003;-70
2022/07/09 11:40:20;;;;;;;;;;;22.80;81.30;;;;;;5075424;28;19905;-73
2022/07/09 11:42:46;;;;;;;;;;;22.90;76.30;;;;;;5074864;28;20258;-74
2022/07/09 11:45:11;;;;;;;;;;;22.70;78.30;;;;;;5074416;28;19909;-73
2022/07/09 11:47:40;;;;;;;;;;;22.50;76.60;;;;;;5074456;28;20364;-74
2022/07/09 11:50:10;;;;;;;;;;;22.30;77.10;;;;;;5074450;28;19904;-74
2022/07/09 11:52:36;;;;;;;;;;;22.20;78.40;;;;;;5074409;28;20283;-74
2022/07/09 11:55:06;;;;;;;;;;;22.20;78.80;;;;;;5074258;28;19931;-74
2022/07/09 11:57:34;;;;;;;;;;;22.40;78.30;;;;;;5074178;28;19965;-74
2022/07/09 12:00:00;;;;;;;;;;;22.50;78.30;;;;;;5074246;28;20261;-74
2022/07/09 12:02:44;;;;;;;;;;;22.50;80.20;;;;;;5074224;28;19912;-73
2022/07/09 12:05:09;;;;;;;;;;;22.40;79.20;;;;;;5074137;28;19904;-74
2022/07/09 12:07:35;;;;;;;;;;;22.40;78.20;;;;;;5072922;28;19905;-73
2022/07/09 12:10:04;;;;;;;;;;;22.30;79.80;;;;;;5074113;28;20398;-73
2022/07/09 12:12:30;;;;;;;;;;;22.20;79.90;;;;;;5074075;28;19994;-74
2022/07/09 12:14:55;;;;;;;;;;;22.10;78.90;;;;;;5073928;28;19947;-74
2022/07/09 12:17:25;;;;;;;;;;;21.90;73.70;;;;;;5073978;28;20380;-74
2022/07/09 12:19:51;;;;;;;;;;;21.70;74.70;;;;;;5074262;28;19911;-75
2022/07/09 12:22:17;;;;;;;;;;;21.50;74.60;;;;;;5074062;28;19904;-75
2022/07/09 12:24:42;;;;;;;;;;;21.40;76.40;;;;;;5073910;28;19946;-75
2022/07/09 12:27:08;;;;;;;;;;;21.20;79.10;;;;;;5074490;28;20257;-75
2022/07/09 12:29:34;;;;;;;;;;;21.20;76.30;;;;;;5073894;28;19912;-74
2022/07/09 12:31:59;;;;;;;;;;;21.10;79.20;;;;;;5073864;28;19908;-75
2022/07/09 12:34:25;;;;;;;;;;;20.90;80.60;;;;;;5073767;28;19912;-74
2022/07/09 12:36:50;;;;;;;;;;;20.90;80.90;;;;;;5073703;28;19949;-74
2022/07/09 12:39:16;;;;;;;;;;;20.90;80.40;;;;;;5073732;28;19904;-74
2022/07/09 12:41:41;;;;;;;;;;;21.00;81.30;;;;;;5073801;28;20263;-74
2022/07/09 12:44:07;;;;;;;;;;;21.10;81.30;;;;;;5073739;28;20380;-74
2022/07/09 12:46:33;;;;;;;;;;;21.20;77.80;;;;;;5072440;28;19912;-74
2022/07/09 12:49:00;;;;;;;;;;;21.40;79.20;;;;;;5073693;28;19904;-74
2022/07/09 12:51:26;;;;;;;;;;;21.60;77.30;;;;;;5072435;28;20305;-74
2022/07/09 12:53:52;;;;;;;;;;;22.10;75.60;;;;;;5073650;28;19908;-74
2022/07/09 12:56:17;;;;;;;;;;;22.30;75.60;;;;;;5073605;28;20361;-74
2022/07/09 12:58:43;;;;;;;;;;;22.50;77.30;;;;;;5073554;28;19908;-74
2022/07/09 13:01:08;;;;;;;;;;;22.70;72.20;;;;;;5072508;28;20360;-74
2022/07/09 13:03:34;;;;;;;;;;;22.70;73.10;;;;;;5073946;28;19927;-73
2022/07/09 13:06:00;;;;;;;;;;;22.50;72.10;;;;;;5073822;28;20292;-74
2022/07/09 13:08:25;;;;;;;;;;;22.20;71.00;;;;;;5074265;28;19912;-74
2022/07/09 13:10:51;;;;;;;;;;;22.10;70.80;;;;;;5076042;28;19904;-74
2022/07/09 13:13:17;;;;;;;;;;;21.90;71.60;;;;;;5077803;28;19912;-75